This is the latest recevied weather packets stored in our database for station/object N4OOJ-13. If no packets are shown the sender has not sent any weather packets the latest 10 day(s).
| Time | Temp. | Humidity | Pressure | Rain* | Wind** | Luminosity | Snow |
|---|---|---|---|---|---|---|---|
| 1777348831 | 9.44° C | 99% | 1025 hPa | 0 mm | - | - | - |
| 1777348230 | 9.44° C | 99% | 1025.1 hPa | 0 mm | - | - | - |
| 1777347629 | 9.44° C | 99% | 1025.2 hPa | 0 mm | - | - | - |
| 1777347027 | 10° C | 99% | 1025.4 hPa | 0 mm | - | - | - |
| 1777346426 | 10° C | 99% | 1025.4 hPa | 0 mm | - | - | - |
| 1777345820 | 10° C | 99% | 1025.4 hPa | 0 mm | - | - | - |
| 1777345233 | 10.56° C | 99% | 1025.4 hPa | 0 mm | - | - | - |
| 1777344627 | 10.56° C | 99% | 1025.4 hPa | 0 mm | - | - | - |
| 1777344027 | 10.56° C | 99% | 1025.4 hPa | 0 mm | - | - | - |
| 1777343427 | 10.56° C | 99% | 1025.2 hPa | 0 mm | - | - | - |
| 1777342821 | 10.56° C | 99% | 1025.1 hPa | 0 mm | - | - | - |
| 1777342220 | 11.11° C | 99% | 1025 hPa | 0 mm | - | - | - |
| 1777341621 | 11.11° C | 98% | 1024.8 hPa | 0 mm | - | - | - |
| 1777341018 | 11.67° C | 97% | 1024.6 hPa | 0 mm | - | - | - |
| 1777340424 | 11.67° C | 97% | 1024.4 hPa | 0 mm | - | - | - |
| 1777339818 | 12.22° C | 97% | 1024.4 hPa | 0 mm | - | - | - |
| 1777339219 | 12.22° C | 96% | 1024.2 hPa | 0 mm | - | - | - |
| 1777338619 | 12.22° C | 92% | 1024 hPa | 0 mm | - | - | - |
| 1777338018 | 12.78° C | 92% | 1023.9 hPa | 0 mm | - | - | - |
| 1777337426 | 13.33° C | 91% | 1023.9 hPa | 0 mm | - | - | - |
| 1777336819 | 13.89° C | 89% | 1023.9 hPa | 0 mm | - | - | - |
| 1777336218 | 14.44° C | 88% | 1023.9 hPa | 0 mm | - | - | - |
| 1777335617 | 15° C | 82% | 1023.6 hPa | 0 mm | - | - | - |
| 1777335017 | 15.56° C | 80% | 1023.5 hPa | 0 mm | - | - | - |
| 1777334423 | 16.67° C | 77% | 1023.4 hPa | 0 mm | - | - | - |
* Rain latest hour (hover to see other rain measurements)
** Current wind speed in m/s (hover to see current wind gust speed)